createdAt,value
2017-08-09T00:01:28.670Z,17.07
2017-08-09T00:04:03.512Z,17.05
2017-08-09T00:06:38.436Z,16.90
2017-08-09T00:09:13.405Z,16.87
2017-08-09T00:11:49.135Z,16.68
2017-08-09T00:14:24.584Z,16.72
2017-08-09T00:16:59.287Z,16.70
2017-08-09T00:19:35.133Z,16.69
2017-08-09T00:22:09.788Z,16.59
2017-08-09T00:24:44.518Z,16.52
2017-08-09T00:27:19.232Z,16.46
2017-08-09T00:29:53.953Z,16.38
2017-08-09T00:32:28.781Z,16.50
2017-08-09T00:35:03.544Z,16.45
2017-08-09T00:37:38.336Z,16.35
2017-08-09T00:40:13.099Z,16.33
2017-08-09T00:42:48.145Z,16.34
2017-08-09T00:45:22.675Z,16.27
2017-08-09T00:47:57.415Z,16.19
2017-08-09T00:50:33.124Z,16.20
2017-08-09T00:53:07.865Z,16.26
2017-08-09T00:55:42.625Z,16.13
2017-08-09T00:58:17.331Z,16.15
2017-08-09T01:00:51.902Z,16.11
2017-08-09T01:03:26.681Z,16.18
2017-08-09T01:06:01.379Z,16.15
2017-08-09T01:08:36.095Z,16.10
2017-08-09T01:11:11.740Z,16.07
2017-08-09T01:13:46.404Z,16.05
2017-08-09T01:16:21.460Z,16.05
2017-08-09T01:18:56.749Z,16.02
2017-08-09T01:21:30.938Z,16.04
2017-08-09T01:24:05.943Z,16.02
2017-08-09T01:26:40.648Z,15.99
2017-08-09T01:29:15.361Z,16.02
2017-08-09T01:31:50.024Z,16.00
2017-08-09T01:34:24.813Z,16.01
2017-08-09T01:37:00.459Z,15.99
2017-08-09T01:39:35.116Z,16.00
2017-08-09T01:42:09.863Z,15.99
2017-08-09T01:44:44.453Z,16.06
2017-08-09T01:47:19.149Z,15.96
2017-08-09T01:49:53.417Z,15.96
2017-08-09T01:52:27.989Z,15.94
2017-08-09T01:55:02.550Z,15.94
2017-08-09T01:57:37.528Z,15.94
2017-08-09T02:00:11.940Z,15.99
2017-08-09T02:02:46.460Z,15.95
2017-08-09T02:05:21.008Z,15.92
2017-08-09T02:07:55.944Z,15.84
2017-08-09T02:10:30.598Z,15.96
2017-08-09T02:13:05.318Z,15.88
2017-08-09T02:15:40.978Z,15.92
2017-08-09T02:18:16.623Z,15.83
2017-08-09T02:20:51.359Z,15.83
2017-08-09T02:23:25.982Z,15.86
2017-08-09T02:26:00.721Z,15.79
2017-08-09T02:28:35.360Z,15.73
2017-08-09T02:31:09.990Z,15.70
2017-08-09T02:33:45.677Z,15.73
2017-08-09T02:36:20.282Z,15.79
2017-08-09T02:38:54.988Z,15.81
2017-08-09T02:41:29.696Z,15.75
2017-08-09T02:44:05.396Z,15.78
2017-08-09T02:46:40.052Z,15.73
2017-08-09T02:49:14.730Z,15.80
2017-08-09T02:51:49.231Z,15.92
2017-08-09T02:54:24.858Z,15.98
2017-08-09T02:56:59.511Z,16.06
2017-08-09T02:59:34.151Z,16.05
2017-08-09T03:02:09.901Z,16.11
2017-08-09T03:04:44.533Z,16.11
2017-08-09T03:07:19.247Z,16.08
2017-08-09T03:09:54.062Z,16.05
2017-08-09T03:12:29.611Z,16.07
2017-08-09T03:15:04.295Z,16.06
2017-08-09T03:17:39.905Z,16.15
2017-08-09T03:20:15.106Z,16.25
2017-08-09T03:22:50.247Z,16.22
2017-08-09T03:25:24.862Z,16.16
2017-08-09T03:27:59.532Z,16.21
2017-08-09T03:30:34.125Z,16.28
2017-08-09T03:33:08.691Z,16.32
2017-08-09T03:35:43.423Z,16.28
2017-08-09T03:38:18.134Z,16.27
2017-08-09T03:40:52.916Z,16.27
2017-08-09T03:43:27.565Z,16.25
2017-08-09T03:46:02.204Z,16.24
2017-08-09T03:48:36.951Z,16.26
2017-08-09T03:51:11.715Z,16.35
2017-08-09T03:53:47.435Z,16.28
2017-08-09T03:56:22.175Z,16.24
2017-08-09T03:58:56.991Z,16.22
2017-08-09T04:01:32.499Z,16.23
2017-08-09T04:04:07.094Z,16.21
2017-08-09T04:06:41.865Z,16.20
2017-08-09T04:09:16.536Z,16.11
2017-08-09T04:11:51.152Z,16.12
2017-08-09T04:14:25.859Z,16.04
2017-08-09T04:17:00.620Z,16.15
2017-08-09T04:19:35.515Z,16.14
2017-08-09T04:22:10.262Z,16.18
2017-08-09T04:24:44.799Z,16.16
2017-08-09T04:27:19.466Z,16.13
2017-08-09T04:29:54.189Z,16.19
2017-08-09T04:32:29.990Z,16.12
2017-08-09T04:35:04.739Z,16.15
2017-08-09T04:37:39.368Z,16.28
2017-08-09T04:40:13.971Z,16.34
2017-08-09T04:42:48.625Z,16.34
2017-08-09T04:45:24.246Z,16.42
2017-08-09T04:47:58.986Z,16.44
2017-08-09T04:50:33.567Z,16.46
2017-08-09T04:53:09.195Z,16.50
2017-08-09T04:55:43.887Z,16.46
2017-08-09T04:58:18.523Z,16.42
2017-08-09T05:00:53.247Z,16.36
2017-08-09T05:03:27.992Z,16.26
2017-08-09T05:06:02.711Z,16.24
2017-08-09T05:08:37.343Z,16.17
2017-08-09T05:11:11.968Z,16.22
2017-08-09T05:13:46.698Z,16.24
2017-08-09T05:16:21.219Z,16.31
2017-08-09T05:18:55.956Z,16.37
2017-08-09T05:21:31.584Z,16.47
2017-08-09T05:24:07.007Z,16.50
2017-08-09T05:26:41.855Z,16.64
2017-08-09T05:29:16.580Z,16.65
2017-08-09T05:31:51.950Z,16.78
2017-08-09T05:34:27.087Z,16.85
2017-08-09T05:37:01.787Z,17.05
2017-08-09T05:39:36.394Z,16.98
2017-08-09T05:42:11.027Z,17.10
2017-08-09T05:44:45.739Z,17.21
2017-08-09T05:47:20.387Z,17.31
2017-08-09T05:49:55.235Z,17.25
2017-08-09T05:52:30.072Z,17.26
2017-08-09T05:55:04.913Z,17.31
2017-08-09T05:57:40.653Z,17.36
2017-08-09T06:00:16.018Z,17.47
2017-08-09T06:02:50.762Z,17.50
2017-08-09T06:05:25.451Z,17.64
2017-08-09T06:08:00.395Z,17.72
2017-08-09T06:10:35.067Z,17.60
2017-08-09T06:13:09.595Z,17.73
2017-08-09T06:15:44.278Z,17.98
2017-08-09T06:18:19.003Z,17.94
2017-08-09T06:20:53.679Z,17.99
2017-08-09T06:23:28.137Z,18.01
2017-08-09T06:26:02.907Z,18.01
2017-08-09T06:28:37.742Z,18.05
2017-08-09T06:31:12.344Z,18.12
2017-08-09T06:33:47.904Z,18.12
2017-08-09T06:36:22.542Z,18.11
2017-08-09T06:38:57.175Z,18.06
2017-08-09T06:41:31.773Z,18.26
2017-08-09T06:44:07.606Z,18.41
2017-08-09T06:46:42.267Z,18.54
2017-08-09T06:49:17.928Z,18.70
2017-08-09T06:51:52.544Z,18.86
2017-08-09T06:54:27.347Z,19.02
2017-08-09T06:57:02.236Z,19.08
2017-08-09T06:59:37.166Z,19.11
2017-08-09T07:02:11.584Z,18.92
2017-08-09T07:04:46.235Z,18.91
2017-08-09T07:07:20.988Z,18.68
2017-08-09T07:09:55.715Z,18.68
2017-08-09T07:12:29.991Z,18.73
2017-08-09T07:15:05.907Z,18.74
2017-08-09T07:17:40.548Z,18.73
2017-08-09T07:20:15.234Z,18.72
2017-08-09T07:22:49.984Z,18.76
2017-08-09T07:25:24.643Z,18.97
2017-08-09T07:27:59.363Z,19.11
2017-08-09T07:30:34.094Z,18.97
2017-08-09T07:33:08.819Z,18.93
2017-08-09T07:35:43.685Z,18.95
2017-08-09T07:38:18.551Z,18.97
2017-08-09T07:40:53.412Z,18.92
2017-08-09T07:43:28.108Z,18.92
2017-08-09T07:46:02.938Z,18.81
2017-08-09T07:48:37.726Z,18.94
2017-08-09T07:51:12.480Z,18.93
2017-08-09T07:53:47.144Z,18.84
2017-08-09T07:56:21.879Z,18.92
2017-08-09T07:58:56.622Z,18.93
2017-08-09T08:01:32.235Z,18.90
2017-08-09T08:04:06.815Z,18.97
2017-08-09T08:06:42.414Z,18.93
2017-08-09T08:09:18.155Z,19.07
2017-08-09T08:11:52.755Z,19.12
2017-08-09T08:14:27.547Z,19.17
2017-08-09T08:17:03.183Z,19.22
2017-08-09T08:19:38.950Z,19.18
2017-08-09T08:22:13.762Z,19.01
2017-08-09T08:24:48.408Z,18.79
2017-08-09T08:27:23.018Z,18.56
2017-08-09T08:29:57.843Z,18.45
2017-08-09T08:32:32.459Z,18.33
2017-08-09T08:35:07.256Z,18.22
2017-08-09T08:37:41.892Z,18.18
2017-08-09T08:40:17.150Z,18.27
2017-08-09T08:42:52.314Z,18.45
2017-08-09T08:45:26.694Z,18.59
2017-08-09T08:48:01.552Z,18.59
2017-08-09T08:50:36.279Z,18.84
2017-08-09T08:53:10.936Z,19.05
2017-08-09T08:55:45.757Z,19.24
2017-08-09T08:58:20.302Z,19.39
2017-08-09T09:00:54.916Z,19.66
2017-08-09T09:03:29.804Z,19.69
2017-08-09T09:06:04.599Z,20.03
2017-08-09T09:08:39.308Z,20.24
2017-08-09T09:11:15.089Z,20.58
2017-08-09T09:13:49.764Z,20.87
2017-08-09T09:16:25.428Z,20.99
2017-08-09T09:19:00.243Z,21.20
2017-08-09T09:21:35.043Z,21.04
2017-08-09T09:24:09.800Z,21.28
2017-08-09T09:26:44.400Z,21.63
2017-08-09T09:29:19.288Z,21.60
2017-08-09T09:31:54.053Z,22.00
2017-08-09T09:34:28.759Z,22.20
2017-08-09T09:37:04.556Z,22.02
2017-08-09T09:39:39.291Z,22.04
2017-08-09T09:42:14.044Z,21.65
2017-08-09T09:44:48.804Z,21.73
2017-08-09T09:47:23.463Z,21.65
2017-08-09T09:49:59.225Z,21.56
2017-08-09T09:52:34.994Z,21.39
2017-08-09T09:55:09.744Z,21.39
2017-08-09T09:57:45.560Z,21.36
2017-08-09T10:00:20.194Z,21.33
2017-08-09T10:02:54.826Z,21.29
2017-08-09T10:05:29.550Z,21.78
2017-08-09T10:08:04.338Z,21.86
2017-08-09T10:10:39.041Z,21.72
2017-08-09T10:13:13.778Z,21.65
2017-08-09T10:15:48.475Z,21.39
2017-08-09T10:18:23.314Z,21.23
2017-08-09T10:20:58.005Z,21.08
2017-08-09T10:23:33.714Z,21.56
2017-08-09T10:26:08.514Z,21.75
2017-08-09T10:28:43.277Z,21.57
2017-08-09T10:31:18.011Z,21.24
2017-08-09T10:33:53.822Z,21.19
2017-08-09T10:36:28.435Z,21.21
2017-08-09T10:39:02.984Z,21.22
2017-08-09T10:41:37.899Z,21.39
2017-08-09T10:44:12.660Z,21.63
2017-08-09T10:46:47.373Z,22.05
2017-08-09T10:49:22.090Z,22.19
2017-08-09T10:51:57.636Z,22.39
2017-08-09T10:54:32.198Z,21.93
2017-08-09T10:57:06.782Z,21.89
2017-08-09T10:59:41.587Z,21.96
2017-08-09T11:02:16.348Z,21.99
2017-08-09T11:04:51.044Z,22.32
2017-08-09T11:07:25.703Z,22.64
2017-08-09T11:10:01.347Z,22.70
2017-08-09T11:12:36.077Z,22.64
2017-08-09T11:15:10.820Z,22.88
2017-08-09T11:17:45.448Z,22.94
2017-08-09T11:20:22.202Z,22.74
2017-08-09T11:22:56.928Z,22.54
2017-08-09T11:25:31.595Z,22.46
2017-08-09T11:28:06.231Z,22.53
2017-08-09T11:30:40.774Z,22.18
2017-08-09T11:33:15.389Z,22.28
2017-08-09T11:35:50.064Z,22.28
2017-08-09T11:38:24.779Z,22.30
2017-08-09T11:41:00.442Z,22.51
2017-08-09T11:43:35.330Z,22.92
2017-08-09T11:46:09.971Z,23.53
2017-08-09T11:48:44.736Z,23.93
2017-08-09T11:51:19.502Z,23.95
2017-08-09T11:53:54.290Z,23.59
2017-08-09T11:56:29.943Z,23.32
2017-08-09T11:59:04.592Z,23.33
2017-08-09T12:01:39.079Z,23.46
2017-08-09T12:04:15.987Z,23.26
2017-08-09T12:06:50.702Z,23.03
2017-08-09T12:09:25.379Z,23.04
2017-08-09T12:12:00.087Z,23.30
2017-08-09T12:14:34.811Z,23.27
2017-08-09T12:17:09.787Z,23.25
2017-08-09T12:19:45.195Z,23.48
2017-08-09T12:22:19.919Z,23.92
2017-08-09T12:24:54.852Z,24.20
2017-08-09T12:27:29.575Z,24.46
2017-08-09T12:30:04.227Z,24.75
2017-08-09T12:32:38.916Z,25.21
2017-08-09T12:35:14.679Z,25.34
2017-08-09T12:37:49.400Z,25.30
2017-08-09T12:40:23.810Z,25.13
2017-08-09T12:42:58.523Z,25.30
2017-08-09T12:45:33.164Z,24.84
2017-08-09T12:48:08.535Z,24.65
2017-08-09T12:50:44.566Z,24.44
2017-08-09T12:53:19.158Z,24.72
2017-08-09T12:55:53.883Z,25.10
2017-08-09T12:58:29.400Z,25.21
2017-08-09T13:01:05.020Z,25.66
2017-08-09T13:03:40.609Z,25.66
2017-08-09T13:06:16.227Z,25.82
2017-08-09T13:08:50.959Z,25.50
2017-08-09T13:11:25.488Z,25.31
2017-08-09T13:14:01.310Z,25.32
2017-08-09T13:16:36.013Z,25.56
2017-08-09T13:19:11.619Z,25.72
2017-08-09T13:21:46.376Z,25.80
2017-08-09T13:24:21.095Z,25.86
2017-08-09T13:26:55.755Z,25.71
2017-08-09T13:29:30.319Z,25.43
2017-08-09T13:32:04.832Z,25.38
2017-08-09T13:34:40.599Z,25.46
2017-08-09T13:37:15.264Z,25.50
2017-08-09T13:39:49.835Z,25.10
2017-08-09T13:42:24.472Z,25.36
2017-08-09T13:44:59.048Z,25.86
2017-08-09T13:47:33.653Z,26.23
2017-08-09T13:50:09.415Z,25.46
2017-08-09T13:52:43.962Z,25.80
2017-08-09T13:55:18.567Z,26.26
2017-08-09T13:57:53.248Z,26.57
2017-08-09T14:00:28.683Z,26.64
2017-08-09T14:03:03.028Z,26.84
2017-08-09T14:05:37.750Z,26.65
2017-08-09T14:08:12.387Z,25.88
2017-08-09T14:10:47.035Z,25.38
2017-08-09T14:13:21.738Z,25.18
2017-08-09T14:15:56.297Z,25.52
2017-08-09T14:18:30.899Z,25.89
2017-08-09T14:21:05.443Z,26.02
2017-08-09T14:23:40.047Z,25.83
2017-08-09T14:26:15.550Z,25.33
2017-08-09T14:28:50.344Z,24.84
2017-08-09T14:31:25.970Z,24.43
2017-08-09T14:34:00.644Z,24.72
2017-08-09T14:36:35.324Z,25.16
2017-08-09T14:39:09.912Z,25.60
2017-08-09T14:41:45.656Z,25.77
2017-08-09T14:44:20.252Z,25.36
2017-08-09T14:46:56.042Z,25.51
2017-08-09T14:49:30.512Z,25.68
2017-08-09T14:52:05.239Z,25.73
2017-08-09T14:54:39.568Z,25.54
2017-08-09T14:57:14.643Z,25.32
2017-08-09T14:59:50.027Z,24.97
2017-08-09T15:02:24.618Z,24.91
2017-08-09T15:04:59.163Z,24.87
2017-08-09T15:07:33.812Z,24.89
2017-08-09T15:10:08.321Z,24.87
2017-08-09T15:12:43.961Z,24.89
2017-08-09T15:15:18.556Z,24.84
2017-08-09T15:17:53.321Z,24.86
2017-08-09T15:20:27.908Z,24.86
2017-08-09T15:23:02.606Z,24.84
2017-08-09T15:25:38.239Z,24.67
2017-08-09T15:28:12.948Z,24.47
2017-08-09T15:30:47.596Z,24.27
2017-08-09T15:33:22.411Z,24.16
2017-08-09T15:35:57.008Z,24.22
2017-08-09T15:38:31.679Z,24.34
2017-08-09T15:41:05.834Z,24.30
2017-08-09T15:43:40.832Z,24.56
2017-08-09T15:46:15.448Z,24.36
2017-08-09T15:48:49.975Z,24.37
2017-08-09T15:51:24.694Z,24.30
2017-08-09T15:53:59.430Z,24.27
2017-08-09T15:56:34.151Z,24.32
2017-08-09T15:59:08.774Z,24.31
2017-08-09T16:01:43.330Z,24.44
2017-08-09T16:04:17.939Z,24.40
2017-08-09T16:06:52.649Z,24.51
2017-08-09T16:09:27.395Z,24.44
2017-08-09T16:12:01.910Z,24.43
2017-08-09T16:14:37.503Z,24.28
2017-08-09T16:17:12.195Z,24.30
2017-08-09T16:19:47.835Z,24.39
2017-08-09T16:22:22.596Z,24.53
2017-08-09T16:24:57.404Z,24.53
2017-08-09T16:27:32.023Z,24.52
2017-08-09T16:30:07.668Z,24.54
2017-08-09T16:32:43.433Z,24.57
2017-08-09T16:35:18.108Z,24.55
2017-08-09T16:37:52.716Z,24.49
2017-08-09T16:40:27.364Z,24.33
2017-08-09T16:43:02.080Z,24.21
2017-08-09T16:45:37.796Z,24.19
2017-08-09T16:48:12.058Z,24.10
2017-08-09T16:50:46.927Z,24.14
2017-08-09T16:53:21.662Z,24.07
2017-08-09T16:55:56.339Z,23.93
2017-08-09T16:58:30.966Z,23.93
2017-08-09T17:01:05.595Z,23.83
2017-08-09T17:03:40.266Z,23.84
2017-08-09T17:06:15.573Z,23.97
2017-08-09T17:08:51.482Z,23.95
2017-08-09T17:11:26.232Z,24.06
2017-08-09T17:14:00.560Z,24.03
2017-08-09T17:16:35.329Z,23.90
2017-08-09T17:19:11.018Z,23.78
2017-08-09T17:21:45.645Z,23.67
2017-08-09T17:24:20.269Z,23.63
2017-08-09T17:26:54.879Z,23.66
2017-08-09T17:29:29.509Z,23.71
2017-08-09T17:32:04.175Z,23.71
2017-08-09T17:34:38.866Z,23.73
2017-08-09T17:37:13.407Z,23.85
2017-08-09T17:39:48.023Z,23.75
2017-08-09T17:42:22.775Z,23.69
2017-08-09T17:44:57.450Z,23.62
2017-08-09T17:47:32.120Z,23.65
2017-08-09T17:50:07.906Z,23.52
2017-08-09T17:52:42.492Z,23.48
2017-08-09T17:55:17.222Z,23.53
2017-08-09T17:57:51.922Z,23.47
2017-08-09T18:00:26.670Z,23.47
2017-08-09T18:03:01.469Z,23.43
2017-08-09T18:05:36.215Z,23.49
2017-08-09T18:08:10.836Z,23.54
2017-08-09T18:10:45.472Z,23.53
2017-08-09T18:13:20.195Z,23.54
2017-08-09T18:15:54.955Z,23.55
2017-08-09T18:18:29.646Z,23.47
2017-08-09T18:21:04.320Z,23.33
2017-08-09T18:23:38.859Z,23.35
2017-08-09T18:26:13.473Z,23.30
2017-08-09T18:28:48.015Z,23.25
2017-08-09T18:31:22.777Z,23.24
2017-08-09T18:33:57.529Z,23.26
2017-08-09T18:36:32.227Z,23.23
2017-08-09T18:39:06.874Z,23.20
2017-08-09T18:41:41.392Z,23.11
2017-08-09T18:44:16.131Z,23.07
2017-08-09T18:46:50.714Z,23.06
2017-08-09T18:49:25.352Z,23.04
2017-08-09T18:52:00.084Z,22.99
2017-08-09T18:54:34.723Z,22.96
2017-08-09T18:57:09.331Z,22.89
2017-08-09T18:59:43.998Z,22.83
2017-08-09T19:02:18.720Z,22.71
2017-08-09T19:04:53.274Z,22.61
2017-08-09T19:07:29.063Z,22.53
2017-08-09T19:10:03.438Z,22.44
2017-08-09T19:12:39.859Z,22.35
2017-08-09T19:15:15.208Z,22.27
2017-08-09T19:17:51.038Z,22.15
2017-08-09T19:20:25.658Z,22.03
2017-08-09T19:23:00.318Z,21.92
2017-08-09T19:25:36.182Z,21.79
2017-08-09T19:28:10.839Z,21.72
2017-08-09T19:30:46.461Z,21.61
2017-08-09T19:33:21.011Z,21.54
2017-08-09T19:35:55.628Z,21.45
2017-08-09T19:38:30.284Z,21.37
2017-08-09T19:41:04.911Z,21.36
2017-08-09T19:43:39.598Z,21.27
2017-08-09T19:46:14.323Z,21.22
2017-08-09T19:48:48.839Z,21.16
2017-08-09T19:51:23.599Z,21.04
2017-08-09T19:53:58.278Z,20.95
2017-08-09T19:56:32.879Z,20.94
2017-08-09T19:59:07.526Z,20.89
2017-08-09T20:01:42.291Z,20.81
2017-08-09T20:04:17.059Z,20.73
2017-08-09T20:06:51.735Z,20.66
2017-08-09T20:09:26.567Z,20.57
2017-08-09T20:12:01.107Z,20.46
2017-08-09T20:14:35.643Z,20.43
2017-08-09T20:17:10.455Z,20.35
2017-08-09T20:19:45.074Z,20.34
2017-08-09T20:22:19.739Z,20.19
2017-08-09T20:24:54.334Z,20.15
2017-08-09T20:27:28.589Z,20.09
2017-08-09T20:30:03.427Z,20.08
2017-08-09T20:32:38.046Z,20.07
2017-08-09T20:35:12.727Z,20.05
2017-08-09T20:37:47.698Z,20.04
2017-08-09T20:40:22.135Z,19.95
2017-08-09T20:42:57.117Z,19.95
2017-08-09T20:45:32.487Z,19.88
2017-08-09T20:48:07.226Z,19.82
2017-08-09T20:50:41.939Z,19.76
2017-08-09T20:53:17.875Z,19.65
2017-08-09T20:55:52.398Z,19.65
2017-08-09T20:58:26.947Z,19.65
2017-08-09T21:01:01.660Z,19.63
2017-08-09T21:03:36.007Z,19.60
2017-08-09T21:06:11.119Z,19.55
2017-08-09T21:08:45.742Z,19.48
2017-08-09T21:11:20.335Z,19.41
2017-08-09T21:13:55.023Z,19.32
2017-08-09T21:16:29.647Z,19.27
2017-08-09T21:19:04.256Z,19.17
2017-08-09T21:21:38.987Z,19.03
2017-08-09T21:24:14.622Z,18.89
2017-08-09T21:26:49.350Z,18.55
2017-08-09T21:29:24.092Z,18.53
2017-08-09T21:31:58.826Z,18.49
2017-08-09T21:34:33.634Z,18.45
2017-08-09T21:37:09.407Z,18.37
2017-08-09T21:39:44.024Z,18.32
2017-08-09T21:42:18.641Z,18.40
2017-08-09T21:44:53.433Z,18.41
2017-08-09T21:47:27.852Z,18.41
2017-08-09T21:50:03.474Z,18.34
2017-08-09T21:52:39.114Z,18.27
2017-08-09T21:55:14.940Z,18.25
2017-08-09T21:57:49.579Z,18.22
2017-08-09T22:00:24.161Z,18.17
2017-08-09T22:02:58.691Z,18.12
2017-08-09T22:05:33.334Z,18.04
2017-08-09T22:08:08.689Z,18.00
2017-08-09T22:10:43.735Z,17.90
2017-08-09T22:13:18.340Z,17.87
2017-08-09T22:15:52.976Z,17.81
2017-08-09T22:18:27.611Z,17.80
2017-08-09T22:21:02.232Z,17.75
2017-08-09T22:23:36.876Z,17.73
2017-08-09T22:26:11.491Z,17.73
2017-08-09T22:28:46.135Z,17.68
2017-08-09T22:31:20.847Z,17.67
2017-08-09T22:33:55.579Z,17.64
2017-08-09T22:36:29.968Z,17.56
2017-08-09T22:39:04.275Z,17.51
2017-08-09T22:41:39.256Z,17.48
2017-08-09T22:44:13.871Z,17.40
2017-08-09T22:46:48.705Z,17.39
2017-08-09T22:49:23.236Z,17.37
2017-08-09T22:51:57.744Z,17.32
2017-08-09T22:54:32.501Z,17.33
2017-08-09T22:57:07.118Z,17.23
2017-08-09T22:59:41.876Z,17.14
2017-08-09T23:02:17.391Z,17.14
2017-08-09T23:04:52.064Z,17.02
2017-08-09T23:07:26.732Z,16.92
2017-08-09T23:10:01.279Z,16.90
2017-08-09T23:12:36.029Z,16.86
2017-08-09T23:15:10.779Z,16.83
2017-08-09T23:17:45.436Z,16.80
2017-08-09T23:20:21.199Z,16.83
2017-08-09T23:22:55.912Z,16.80
2017-08-09T23:25:30.423Z,16.75
2017-08-09T23:28:05.114Z,16.75
2017-08-09T23:30:39.792Z,16.60
2017-08-09T23:33:14.595Z,16.59
2017-08-09T23:35:49.304Z,16.57
2017-08-09T23:38:24.107Z,16.52
2017-08-09T23:40:58.726Z,16.53
2017-08-09T23:43:33.345Z,16.54
2017-08-09T23:46:07.968Z,16.54
2017-08-09T23:48:42.718Z,16.53
2017-08-09T23:51:17.482Z,16.52
2017-08-09T23:53:53.302Z,16.53
2017-08-09T23:56:27.959Z,16.55
2017-08-09T23:59:02.792Z,16.51
